Terminal Aerodrome Forecast
Issued by NWS

Home | Current Version | Previous Version | Text Only | Print | Product List | Glossary Off
Versions: 1 2 3 4 5 6 7 8 9 10 11 12 13 14 15 16 17 18 19 20 21 22

189
FTUS43 KICT 171129
TAFCNU
TAF
KCNU 171129Z 1712/1812 30010KT P6SM OVC009
      TEMPO 1712/1714 4SM -DZ BR
     FM171700 30005KT P6SM OVC015
     FM171900 30005KT P6SM OVC025
     FM172000 29005KT P6SM BKN040
     FM172200 29006KT P6SM SCT060
     FM180800 00000KT P6SM SCT200=

USA.gov is the U.S. government's official web portal to all federal, state and local government web resources and services.